sensor_id;sensor_type;location;lat;lon;timestamp;P1;durP1;ratioP1;P2;durP2;ratioP2
14698;SDS011;7439;50.804;4.602;2023-02-21T00:00:35;40.10;;;28.73;;
14698;SDS011;7439;50.804;4.602;2023-02-21T00:03:20;41.97;;;29.90;;
14698;SDS011;7439;50.804;4.602;2023-02-21T00:06:06;37.87;;;30.10;;
14698;SDS011;7439;50.804;4.602;2023-02-21T00:08:51;39.47;;;31.37;;
14698;SDS011;7439;50.804;4.602;2023-02-21T00:11:39;39.93;;;29.27;;
14698;SDS011;7439;50.804;4.602;2023-02-21T00:14:26;38.23;;;29.27;;
14698;SDS011;7439;50.804;4.602;2023-02-21T00:17:10;39.23;;;30.43;;
14698;SDS011;7439;50.804;4.602;2023-02-21T00:19:55;40.40;;;30.43;;
14698;SDS011;7439;50.804;4.602;2023-02-21T00:22:41;43.23;;;33.20;;
14698;SDS011;7439;50.804;4.602;2023-02-21T00:25:25;40.97;;;31.27;;
14698;SDS011;7439;50.804;4.602;2023-02-21T00:28:10;48.70;;;34.27;;
14698;SDS011;7439;50.804;4.602;2023-02-21T00:30:57;39.87;;;29.53;;
14698;SDS011;7439;50.804;4.602;2023-02-21T00:33:42;38.03;;;29.83;;
14698;SDS011;7439;50.804;4.602;2023-02-21T00:36:26;44.03;;;32.50;;
14698;SDS011;7439;50.804;4.602;2023-02-21T00:39:11;41.37;;;29.83;;
14698;SDS011;7439;50.804;4.602;2023-02-21T00:41:56;37.20;;;29.07;;
14698;SDS011;7439;50.804;4.602;2023-02-21T00:44:41;35.53;;;28.37;;
14698;SDS011;7439;50.804;4.602;2023-02-21T00:47:28;37.00;;;30.30;;
14698;SDS011;7439;50.804;4.602;2023-02-21T00:50:13;39.87;;;30.27;;
14698;SDS011;7439;50.804;4.602;2023-02-21T00:52:58;43.63;;;32.07;;
14698;SDS011;7439;50.804;4.602;2023-02-21T00:55:43;39.83;;;29.83;;
14698;SDS011;7439;50.804;4.602;2023-02-21T00:58:28;35.40;;;27.27;;
14698;SDS011;7439;50.804;4.602;2023-02-21T01:01:13;34.83;;;26.50;;
14698;SDS011;7439;50.804;4.602;2023-02-21T01:03:59;35.00;;;26.70;;
14698;SDS011;7439;50.804;4.602;2023-02-21T01:06:49;37.03;;;26.47;;
14698;SDS011;7439;50.804;4.602;2023-02-21T01:09:34;33.20;;;25.53;;
14698;SDS011;7439;50.804;4.602;2023-02-21T01:12:19;32.27;;;26.73;;
14698;SDS011;7439;50.804;4.602;2023-02-21T01:15:04;35.23;;;27.27;;
14698;SDS011;7439;50.804;4.602;2023-02-21T01:17:49;35.83;;;26.10;;
14698;SDS011;7439;50.804;4.602;2023-02-21T01:20:36;35.57;;;26.87;;
14698;SDS011;7439;50.804;4.602;2023-02-21T01:23:20;34.30;;;26.37;;
14698;SDS011;7439;50.804;4.602;2023-02-21T01:26:07;38.40;;;27.50;;
14698;SDS011;7439;50.804;4.602;2023-02-21T01:28:52;39.03;;;28.10;;
14698;SDS011;7439;50.804;4.602;2023-02-21T01:31:37;41.27;;;28.80;;
14698;SDS011;7439;50.804;4.602;2023-02-21T01:34:22;33.93;;;26.23;;
14698;SDS011;7439;50.804;4.602;2023-02-21T01:37:08;36.90;;;26.87;;
14698;SDS011;7439;50.804;4.602;2023-02-21T01:39:53;36.67;;;26.80;;
14698;SDS011;7439;50.804;4.602;2023-02-21T01:42:38;36.43;;;26.07;;
14698;SDS011;7439;50.804;4.602;2023-02-21T01:45:40;39.93;;;28.23;;
14698;SDS011;7439;50.804;4.602;2023-02-21T01:48:26;38.50;;;28.70;;
14698;SDS011;7439;50.804;4.602;2023-02-21T01:51:13;39.67;;;28.57;;
14698;SDS011;7439;50.804;4.602;2023-02-21T01:53:59;38.27;;;28.33;;
14698;SDS011;7439;50.804;4.602;2023-02-21T01:56:44;37.73;;;26.20;;
14698;SDS011;7439;50.804;4.602;2023-02-21T01:59:29;38.60;;;28.40;;
14698;SDS011;7439;50.804;4.602;2023-02-21T02:02:16;39.20;;;27.90;;
14698;SDS011;7439;50.804;4.602;2023-02-21T02:05:02;37.50;;;27.27;;
14698;SDS011;7439;50.804;4.602;2023-02-21T02:07:48;32.83;;;25.33;;
14698;SDS011;7439;50.804;4.602;2023-02-21T02:10:34;35.17;;;25.30;;
14698;SDS011;7439;50.804;4.602;2023-02-21T02:13:32;35.67;;;25.93;;
14698;SDS011;7439;50.804;4.602;2023-02-21T02:16:05;34.93;;;24.83;;
14698;SDS011;7439;50.804;4.602;2023-02-21T02:18:38;36.37;;;25.63;;
14698;SDS011;7439;50.804;4.602;2023-02-21T02:21:26;31.47;;;24.00;;
14698;SDS011;7439;50.804;4.602;2023-02-21T02:26:55;35.03;;;24.57;;
14698;SDS011;7439;50.804;4.602;2023-02-21T02:29:32;33.20;;;24.33;;
14698;SDS011;7439;50.804;4.602;2023-02-21T02:34:56;32.07;;;23.93;;
14698;SDS011;7439;50.804;4.602;2023-02-21T02:37:27;27.03;;;20.93;;
14698;SDS011;7439;50.804;4.602;2023-02-21T02:39:58;31.63;;;20.97;;
14698;SDS011;7439;50.804;4.602;2023-02-21T02:42:32;24.47;;;19.47;;
14698;SDS011;7439;50.804;4.602;2023-02-21T02:45:03;26.87;;;19.87;;
14698;SDS011;7439;50.804;4.602;2023-02-21T02:47:33;25.63;;;19.77;;
14698;SDS011;7439;50.804;4.602;2023-02-21T02:50:04;24.03;;;19.23;;
14698;SDS011;7439;50.804;4.602;2023-02-21T02:52:33;24.67;;;18.67;;
14698;SDS011;7439;50.804;4.602;2023-02-21T02:55:03;25.37;;;19.50;;
14698;SDS011;7439;50.804;4.602;2023-02-21T02:57:31;25.37;;;20.27;;
14698;SDS011;7439;50.804;4.602;2023-02-21T03:00:05;24.17;;;18.33;;
14698;SDS011;7439;50.804;4.602;2023-02-21T03:02:47;23.37;;;19.07;;
14698;SDS011;7439;50.804;4.602;2023-02-21T03:05:24;25.63;;;18.87;;
14698;SDS011;7439;50.804;4.602;2023-02-21T03:07:57;26.67;;;19.17;;
14698;SDS011;7439;50.804;4.602;2023-02-21T03:10:27;28.07;;;20.67;;
14698;SDS011;7439;50.804;4.602;2023-02-21T03:13:02;23.80;;;18.97;;
14698;SDS011;7439;50.804;4.602;2023-02-21T03:15:32;27.33;;;20.57;;
14698;SDS011;7439;50.804;4.602;2023-02-21T03:18:03;24.57;;;19.20;;
14698;SDS011;7439;50.804;4.602;2023-02-21T03:20:33;28.50;;;19.33;;
14698;SDS011;7439;50.804;4.602;2023-02-21T03:23:01;26.07;;;19.47;;
14698;SDS011;7439;50.804;4.602;2023-02-21T03:25:29;29.27;;;20.83;;
14698;SDS011;7439;50.804;4.602;2023-02-21T03:27:58;28.97;;;20.77;;
14698;SDS011;7439;50.804;4.602;2023-02-21T03:30:26;30.70;;;20.53;;
14698;SDS011;7439;50.804;4.602;2023-02-21T03:32:54;28.87;;;20.77;;
14698;SDS011;7439;50.804;4.602;2023-02-21T03:35:22;31.13;;;20.30;;
14698;SDS011;7439;50.804;4.602;2023-02-21T03:37:52;28.07;;;19.73;;
14698;SDS011;7439;50.804;4.602;2023-02-21T03:40:20;27.23;;;20.40;;
14698;SDS011;7439;50.804;4.602;2023-02-21T03:42:48;27.37;;;19.83;;
14698;SDS011;7439;50.804;4.602;2023-02-21T03:45:16;30.77;;;20.10;;
14698;SDS011;7439;50.804;4.602;2023-02-21T03:47:44;27.63;;;18.17;;
14698;SDS011;7439;50.804;4.602;2023-02-21T03:50:11;26.80;;;19.43;;
14698;SDS011;7439;50.804;4.602;2023-02-21T03:52:39;26.40;;;18.73;;
14698;SDS011;7439;50.804;4.602;2023-02-21T03:55:08;25.80;;;18.90;;
14698;SDS011;7439;50.804;4.602;2023-02-21T03:57:35;27.83;;;18.93;;
14698;SDS011;7439;50.804;4.602;2023-02-21T04:00:03;25.93;;;17.87;;
14698;SDS011;7439;50.804;4.602;2023-02-21T04:02:31;26.40;;;18.37;;
14698;SDS011;7439;50.804;4.602;2023-02-21T04:04:58;27.07;;;18.57;;
14698;SDS011;7439;50.804;4.602;2023-02-21T04:07:25;26.43;;;18.03;;
14698;SDS011;7439;50.804;4.602;2023-02-21T04:09:53;32.67;;;21.67;;
14698;SDS011;7439;50.804;4.602;2023-02-21T04:12:22;23.13;;;17.40;;
14698;SDS011;7439;50.804;4.602;2023-02-21T04:14:49;26.07;;;19.20;;
14698;SDS011;7439;50.804;4.602;2023-02-21T04:17:20;28.93;;;19.93;;
14698;SDS011;7439;50.804;4.602;2023-02-21T04:19:51;25.07;;;18.97;;
14698;SDS011;7439;50.804;4.602;2023-02-21T04:22:21;29.23;;;19.93;;
14698;SDS011;7439;50.804;4.602;2023-02-21T04:24:49;29.00;;;20.20;;
14698;SDS011;7439;50.804;4.602;2023-02-21T04:27:16;28.93;;;18.83;;
14698;SDS011;7439;50.804;4.602;2023-02-21T04:29:45;29.73;;;19.93;;
14698;SDS011;7439;50.804;4.602;2023-02-21T04:32:12;27.97;;;18.67;;
14698;SDS011;7439;50.804;4.602;2023-02-21T04:34:40;30.40;;;20.87;;
14698;SDS011;7439;50.804;4.602;2023-02-21T04:37:07;32.07;;;19.87;;
14698;SDS011;7439;50.804;4.602;2023-02-21T04:39:35;27.97;;;21.10;;
14698;SDS011;7439;50.804;4.602;2023-02-21T04:42:02;26.93;;;20.57;;
14698;SDS011;7439;50.804;4.602;2023-02-21T04:44:30;26.67;;;19.27;;
14698;SDS011;7439;50.804;4.602;2023-02-21T04:46:58;27.47;;;19.57;;
14698;SDS011;7439;50.804;4.602;2023-02-21T04:49:26;26.70;;;20.17;;
14698;SDS011;7439;50.804;4.602;2023-02-21T04:51:56;26.90;;;19.27;;
14698;SDS011;7439;50.804;4.602;2023-02-21T04:54:24;28.50;;;20.10;;
14698;SDS011;7439;50.804;4.602;2023-02-21T04:56:51;26.60;;;19.83;;
14698;SDS011;7439;50.804;4.602;2023-02-21T04:59:19;28.00;;;20.20;;
14698;SDS011;7439;50.804;4.602;2023-02-21T05:01:46;29.13;;;19.90;;
14698;SDS011;7439;50.804;4.602;2023-02-21T05:04:15;28.80;;;20.00;;
14698;SDS011;7439;50.804;4.602;2023-02-21T05:06:43;30.47;;;20.97;;
14698;SDS011;7439;50.804;4.602;2023-02-21T05:09:10;29.17;;;19.43;;
14698;SDS011;7439;50.804;4.602;2023-02-21T05:11:37;29.37;;;20.80;;
14698;SDS011;7439;50.804;4.602;2023-02-21T05:14:05;29.13;;;19.90;;
14698;SDS011;7439;50.804;4.602;2023-02-21T05:16:33;27.57;;;19.17;;
14698;SDS011;7439;50.804;4.602;2023-02-21T05:19:00;29.17;;;19.20;;
14698;SDS011;7439;50.804;4.602;2023-02-21T05:21:32;28.30;;;19.73;;
14698;SDS011;7439;50.804;4.602;2023-02-21T05:24:00;29.37;;;19.90;;
14698;SDS011;7439;50.804;4.602;2023-02-21T05:26:31;29.07;;;20.13;;
14698;SDS011;7439;50.804;4.602;2023-02-21T05:28:59;30.33;;;21.47;;
14698;SDS011;7439;50.804;4.602;2023-02-21T05:31:27;33.17;;;21.67;;
14698;SDS011;7439;50.804;4.602;2023-02-21T05:33:55;33.00;;;22.37;;
14698;SDS011;7439;50.804;4.602;2023-02-21T05:36:23;34.40;;;22.37;;
14698;SDS011;7439;50.804;4.602;2023-02-21T05:38:53;31.70;;;22.00;;
14698;SDS011;7439;50.804;4.602;2023-02-21T05:41:21;28.30;;;20.70;;
14698;SDS011;7439;50.804;4.602;2023-02-21T05:43:49;29.73;;;21.17;;
14698;SDS011;7439;50.804;4.602;2023-02-21T05:46:20;31.47;;;22.00;;
14698;SDS011;7439;50.804;4.602;2023-02-21T05:48:49;31.73;;;21.43;;
14698;SDS011;7439;50.804;4.602;2023-02-21T05:51:16;34.30;;;22.27;;
14698;SDS011;7439;50.804;4.602;2023-02-21T05:53:44;36.53;;;24.07;;
14698;SDS011;7439;50.804;4.602;2023-02-21T05:56:13;36.80;;;23.47;;
14698;SDS011;7439;50.804;4.602;2023-02-21T05:58:41;34.37;;;23.83;;
14698;SDS011;7439;50.804;4.602;2023-02-21T06:01:08;34.93;;;23.80;;
14698;SDS011;7439;50.804;4.602;2023-02-21T06:03:36;37.30;;;23.87;;
14698;SDS011;7439;50.804;4.602;2023-02-21T06:06:03;41.70;;;24.03;;
14698;SDS011;7439;50.804;4.602;2023-02-21T06:08:31;36.90;;;20.83;;
14698;SDS011;7439;50.804;4.602;2023-02-21T06:10:58;35.97;;;21.60;;
14698;SDS011;7439;50.804;4.602;2023-02-21T06:13:33;36.73;;;24.00;;
14698;SDS011;7439;50.804;4.602;2023-02-21T06:16:01;38.70;;;23.03;;
14698;SDS011;7439;50.804;4.602;2023-02-21T06:18:28;34.70;;;23.50;;
14698;SDS011;7439;50.804;4.602;2023-02-21T06:20:56;32.60;;;20.60;;
14698;SDS011;7439;50.804;4.602;2023-02-21T06:23:23;33.03;;;20.57;;
14698;SDS011;7439;50.804;4.602;2023-02-21T06:25:51;30.67;;;19.93;;
14698;SDS011;7439;50.804;4.602;2023-02-21T06:28:19;35.57;;;20.93;;
14698;SDS011;7439;50.804;4.602;2023-02-21T06:30:47;29.40;;;19.63;;
14698;SDS011;7439;50.804;4.602;2023-02-21T06:33:15;29.30;;;19.53;;
14698;SDS011;7439;50.804;4.602;2023-02-21T06:35:42;27.43;;;17.87;;
14698;SDS011;7439;50.804;4.602;2023-02-21T06:38:09;24.57;;;16.73;;
14698;SDS011;7439;50.804;4.602;2023-02-21T06:40:37;25.17;;;17.17;;
14698;SDS011;7439;50.804;4.602;2023-02-21T06:43:04;25.87;;;16.50;;
14698;SDS011;7439;50.804;4.602;2023-02-21T06:45:31;25.47;;;16.10;;
14698;SDS011;7439;50.804;4.602;2023-02-21T06:48:00;24.60;;;15.20;;
14698;SDS011;7439;50.804;4.602;2023-02-21T06:50:28;26.40;;;16.10;;
14698;SDS011;7439;50.804;4.602;2023-02-21T06:52:58;23.03;;;15.13;;
14698;SDS011;7439;50.804;4.602;2023-02-21T06:55:25;21.73;;;13.77;;
14698;SDS011;7439;50.804;4.602;2023-02-21T06:57:53;21.23;;;14.20;;
14698;SDS011;7439;50.804;4.602;2023-02-21T07:00:20;24.90;;;16.23;;
14698;SDS011;7439;50.804;4.602;2023-02-21T07:02:51;23.80;;;15.13;;
14698;SDS011;7439;50.804;4.602;2023-02-21T07:05:20;25.03;;;14.37;;
14698;SDS011;7439;50.804;4.602;2023-02-21T07:07:47;23.03;;;14.67;;
14698;SDS011;7439;50.804;4.602;2023-02-21T07:10:15;20.37;;;13.47;;
14698;SDS011;7439;50.804;4.602;2023-02-21T07:12:42;23.53;;;14.73;;
14698;SDS011;7439;50.804;4.602;2023-02-21T07:15:09;22.47;;;14.27;;
14698;SDS011;7439;50.804;4.602;2023-02-21T07:17:37;23.80;;;14.23;;
14698;SDS011;7439;50.804;4.602;2023-02-21T07:20:06;23.27;;;14.27;;
14698;SDS011;7439;50.804;4.602;2023-02-21T07:22:35;26.53;;;15.47;;
14698;SDS011;7439;50.804;4.602;2023-02-21T07:25:02;22.93;;;15.33;;
14698;SDS011;7439;50.804;4.602;2023-02-21T07:27:30;28.23;;;17.23;;
14698;SDS011;7439;50.804;4.602;2023-02-21T07:29:57;21.60;;;14.70;;
14698;SDS011;7439;50.804;4.602;2023-02-21T07:32:25;25.33;;;15.47;;
14698;SDS011;7439;50.804;4.602;2023-02-21T07:34:55;29.13;;;16.80;;
14698;SDS011;7439;50.804;4.602;2023-02-21T07:37:23;25.40;;;16.10;;
14698;SDS011;7439;50.804;4.602;2023-02-21T07:39:53;24.20;;;17.37;;
14698;SDS011;7439;50.804;4.602;2023-02-21T07:42:20;22.17;;;14.27;;
14698;SDS011;7439;50.804;4.602;2023-02-21T07:44:48;20.73;;;13.87;;
14698;SDS011;7439;50.804;4.602;2023-02-21T07:47:15;22.60;;;15.00;;
14698;SDS011;7439;50.804;4.602;2023-02-21T07:49:42;20.10;;;14.13;;
14698;SDS011;7439;50.804;4.602;2023-02-21T07:52:10;21.33;;;15.53;;
14698;SDS011;7439;50.804;4.602;2023-02-21T07:54:37;23.37;;;14.53;;
14698;SDS011;7439;50.804;4.602;2023-02-21T07:57:06;22.53;;;14.87;;
14698;SDS011;7439;50.804;4.602;2023-02-21T07:59:34;19.90;;;14.20;;
14698;SDS011;7439;50.804;4.602;2023-02-21T08:02:01;24.23;;;15.43;;
14698;SDS011;7439;50.804;4.602;2023-02-21T08:04:29;21.70;;;15.07;;
14698;SDS011;7439;50.804;4.602;2023-02-21T08:06:59;25.67;;;16.67;;
14698;SDS011;7439;50.804;4.602;2023-02-21T08:09:27;26.20;;;15.83;;
14698;SDS011;7439;50.804;4.602;2023-02-21T08:11:54;25.23;;;15.93;;
14698;SDS011;7439;50.804;4.602;2023-02-21T08:14:23;24.90;;;16.10;;
14698;SDS011;7439;50.804;4.602;2023-02-21T08:16:51;23.83;;;17.50;;
14698;SDS011;7439;50.804;4.602;2023-02-21T08:19:18;25.00;;;17.40;;
14698;SDS011;7439;50.804;4.602;2023-02-21T08:21:46;27.27;;;17.60;;
14698;SDS011;7439;50.804;4.602;2023-02-21T08:24:13;25.23;;;17.30;;
14698;SDS011;7439;50.804;4.602;2023-02-21T08:26:41;29.83;;;18.93;;
14698;SDS011;7439;50.804;4.602;2023-02-21T08:29:09;29.90;;;19.60;;
14698;SDS011;7439;50.804;4.602;2023-02-21T08:31:39;31.23;;;19.23;;
14698;SDS011;7439;50.804;4.602;2023-02-21T08:34:08;29.67;;;20.53;;
14698;SDS011;7439;50.804;4.602;2023-02-21T08:36:36;28.03;;;19.70;;
14698;SDS011;7439;50.804;4.602;2023-02-21T08:39:04;30.43;;;19.67;;
14698;SDS011;7439;50.804;4.602;2023-02-21T08:41:35;26.90;;;19.00;;
14698;SDS011;7439;50.804;4.602;2023-02-21T08:44:03;31.53;;;20.13;;
14698;SDS011;7439;50.804;4.602;2023-02-21T08:46:30;29.10;;;20.30;;
14698;SDS011;7439;50.804;4.602;2023-02-21T08:48:59;32.30;;;19.50;;
14698;SDS011;7439;50.804;4.602;2023-02-21T08:51:27;29.47;;;18.50;;
14698;SDS011;7439;50.804;4.602;2023-02-21T08:53:55;31.00;;;19.90;;
14698;SDS011;7439;50.804;4.602;2023-02-21T08:56:25;32.47;;;20.37;;
14698;SDS011;7439;50.804;4.602;2023-02-21T08:58:53;29.20;;;19.83;;
14698;SDS011;7439;50.804;4.602;2023-02-21T09:01:21;34.47;;;21.87;;
14698;SDS011;7439;50.804;4.602;2023-02-21T09:03:48;37.57;;;23.40;;
14698;SDS011;7439;50.804;4.602;2023-02-21T09:06:17;41.57;;;23.17;;
14698;SDS011;7439;50.804;4.602;2023-02-21T09:08:44;42.83;;;25.60;;
14698;SDS011;7439;50.804;4.602;2023-02-21T09:11:12;53.80;;;27.87;;
14698;SDS011;7439;50.804;4.602;2023-02-21T09:13:39;64.73;;;30.97;;
14698;SDS011;7439;50.804;4.602;2023-02-21T09:16:07;53.13;;;28.60;;
14698;SDS011;7439;50.804;4.602;2023-02-21T09:18:34;63.73;;;29.33;;
14698;SDS011;7439;50.804;4.602;2023-02-21T09:21:02;64.77;;;30.70;;
14698;SDS011;7439;50.804;4.602;2023-02-21T09:23:31;60.87;;;29.63;;
14698;SDS011;7439;50.804;4.602;2023-02-21T09:25:59;65.13;;;31.07;;
14698;SDS011;7439;50.804;4.602;2023-02-21T09:28:26;61.43;;;31.13;;
14698;SDS011;7439;50.804;4.602;2023-02-21T09:30:55;64.43;;;31.80;;
14698;SDS011;7439;50.804;4.602;2023-02-21T09:33:26;58.57;;;29.07;;
14698;SDS011;7439;50.804;4.602;2023-02-21T09:35:56;60.20;;;31.47;;
14698;SDS011;7439;50.804;4.602;2023-02-21T09:38:23;59.33;;;30.93;;
14698;SDS011;7439;50.804;4.602;2023-02-21T09:40:53;65.47;;;32.83;;
14698;SDS011;7439;50.804;4.602;2023-02-21T09:43:23;59.77;;;30.57;;
14698;SDS011;7439;50.804;4.602;2023-02-21T09:45:55;55.17;;;27.93;;
14698;SDS011;7439;50.804;4.602;2023-02-21T09:48:24;51.47;;;27.67;;
14698;SDS011;7439;50.804;4.602;2023-02-21T09:50:53;57.67;;;29.60;;
14698;SDS011;7439;50.804;4.602;2023-02-21T09:53:23;61.07;;;31.60;;
14698;SDS011;7439;50.804;4.602;2023-02-21T09:55:53;61.97;;;31.03;;
14698;SDS011;7439;50.804;4.602;2023-02-21T09:58:21;65.93;;;32.83;;
14698;SDS011;7439;50.804;4.602;2023-02-21T10:00:48;68.70;;;33.07;;
14698;SDS011;7439;50.804;4.602;2023-02-21T10:03:21;67.30;;;33.10;;
14698;SDS011;7439;50.804;4.602;2023-02-21T10:05:51;68.53;;;33.70;;
14698;SDS011;7439;50.804;4.602;2023-02-21T10:08:21;71.23;;;33.90;;
14698;SDS011;7439;50.804;4.602;2023-02-21T10:10:56;74.63;;;35.53;;
14698;SDS011;7439;50.804;4.602;2023-02-21T10:13:32;70.43;;;32.80;;
14698;SDS011;7439;50.804;4.602;2023-02-21T10:16:01;72.60;;;36.97;;
14698;SDS011;7439;50.804;4.602;2023-02-21T10:18:31;74.83;;;36.90;;
14698;SDS011;7439;50.804;4.602;2023-02-21T10:21:01;74.10;;;35.27;;
14698;SDS011;7439;50.804;4.602;2023-02-21T10:23:31;67.10;;;33.63;;
14698;SDS011;7439;50.804;4.602;2023-02-21T10:26:03;67.30;;;34.97;;
14698;SDS011;7439;50.804;4.602;2023-02-21T10:28:34;67.63;;;34.43;;
14698;SDS011;7439;50.804;4.602;2023-02-21T10:31:03;63.10;;;32.60;;
14698;SDS011;7439;50.804;4.602;2023-02-21T10:33:32;69.70;;;34.33;;
14698;SDS011;7439;50.804;4.602;2023-02-21T10:36:01;65.20;;;33.60;;
14698;SDS011;7439;50.804;4.602;2023-02-21T10:38:28;56.60;;;30.17;;
14698;SDS011;7439;50.804;4.602;2023-02-21T10:40:56;51.47;;;28.80;;
14698;SDS011;7439;50.804;4.602;2023-02-21T10:43:27;61.83;;;31.40;;
14698;SDS011;7439;50.804;4.602;2023-02-21T10:45:58;66.63;;;32.80;;
14698;SDS011;7439;50.804;4.602;2023-02-21T10:48:29;71.23;;;33.83;;
14698;SDS011;7439;50.804;4.602;2023-02-21T10:51:04;72.60;;;33.40;;
14698;SDS011;7439;50.804;4.602;2023-02-21T10:53:32;69.20;;;33.73;;
14698;SDS011;7439;50.804;4.602;2023-02-21T10:56:07;79.63;;;37.17;;
14698;SDS011;7439;50.804;4.602;2023-02-21T10:58:37;92.27;;;39.73;;
14698;SDS011;7439;50.804;4.602;2023-02-21T11:01:12;85.60;;;38.73;;
14698;SDS011;7439;50.804;4.602;2023-02-21T11:03:44;85.67;;;40.43;;
14698;SDS011;7439;50.804;4.602;2023-02-21T11:06:20;82.87;;;39.17;;
14698;SDS011;7439;50.804;4.602;2023-02-21T11:08:48;84.67;;;39.67;;
14698;SDS011;7439;50.804;4.602;2023-02-21T11:11:15;79.43;;;39.93;;
14698;SDS011;7439;50.804;4.602;2023-02-21T11:13:44;82.57;;;40.07;;
14698;SDS011;7439;50.804;4.602;2023-02-21T11:16:14;78.80;;;38.27;;
14698;SDS011;7439;50.804;4.602;2023-02-21T11:18:42;76.63;;;37.67;;
14698;SDS011;7439;50.804;4.602;2023-02-21T11:21:10;73.73;;;38.87;;
14698;SDS011;7439;50.804;4.602;2023-02-21T11:23:42;74.70;;;40.47;;
14698;SDS011;7439;50.804;4.602;2023-02-21T11:26:10;71.60;;;39.80;;
14698;SDS011;7439;50.804;4.602;2023-02-21T11:28:39;73.63;;;37.23;;
14698;SDS011;7439;50.804;4.602;2023-02-21T11:31:14;60.33;;;33.50;;
14698;SDS011;7439;50.804;4.602;2023-02-21T11:33:43;60.53;;;34.77;;
14698;SDS011;7439;50.804;4.602;2023-02-21T11:36:13;60.93;;;33.60;;
14698;SDS011;7439;50.804;4.602;2023-02-21T11:38:42;69.10;;;36.37;;
14698;SDS011;7439;50.804;4.602;2023-02-21T11:41:15;65.13;;;37.83;;
14698;SDS011;7439;50.804;4.602;2023-02-21T11:43:46;68.70;;;37.73;;
14698;SDS011;7439;50.804;4.602;2023-02-21T11:46:20;65.43;;;37.03;;
14698;SDS011;7439;50.804;4.602;2023-02-21T11:48:53;58.37;;;34.20;;
14698;SDS011;7439;50.804;4.602;2023-02-21T11:51:29;61.03;;;35.83;;
14698;SDS011;7439;50.804;4.602;2023-02-21T11:54:00;61.17;;;36.27;;
14698;SDS011;7439;50.804;4.602;2023-02-21T11:56:31;68.00;;;37.10;;
14698;SDS011;7439;50.804;4.602;2023-02-21T11:59:01;65.00;;;36.17;;
14698;SDS011;7439;50.804;4.602;2023-02-21T12:01:33;70.10;;;40.00;;
14698;SDS011;7439;50.804;4.602;2023-02-21T12:06:48;70.67;;;39.30;;
14698;SDS011;7439;50.804;4.602;2023-02-21T12:09:21;69.90;;;40.40;;
14698;SDS011;7439;50.804;4.602;2023-02-21T12:11:55;76.77;;;40.93;;
14698;SDS011;7439;50.804;4.602;2023-02-21T12:14:31;74.90;;;41.47;;
14698;SDS011;7439;50.804;4.602;2023-02-21T12:17:07;80.03;;;46.73;;
14698;SDS011;7439;50.804;4.602;2023-02-21T12:19:38;75.93;;;41.70;;
14698;SDS011;7439;50.804;4.602;2023-02-21T12:22:11;69.47;;;40.90;;
14698;SDS011;7439;50.804;4.602;2023-02-21T12:24:45;63.37;;;39.80;;
14698;SDS011;7439;50.804;4.602;2023-02-21T12:27:19;68.90;;;41.30;;
14698;SDS011;7439;50.804;4.602;2023-02-21T12:29:51;74.73;;;41.40;;
14698;SDS011;7439;50.804;4.602;2023-02-21T12:32:32;67.93;;;42.00;;
14698;SDS011;7439;50.804;4.602;2023-02-21T12:35:17;64.50;;;40.87;;
14698;SDS011;7439;50.804;4.602;2023-02-21T12:37:49;63.37;;;38.63;;
14698;SDS011;7439;50.804;4.602;2023-02-21T12:40:19;67.43;;;41.23;;
14698;SDS011;7439;50.804;4.602;2023-02-21T12:42:52;67.50;;;40.30;;
14698;SDS011;7439;50.804;4.602;2023-02-21T12:45:31;64.40;;;41.10;;
14698;SDS011;7439;50.804;4.602;2023-02-21T12:48:04;61.00;;;40.17;;
14698;SDS011;7439;50.804;4.602;2023-02-21T12:50:34;64.30;;;40.87;;
14698;SDS011;7439;50.804;4.602;2023-02-21T12:53:04;64.00;;;43.57;;
14698;SDS011;7439;50.804;4.602;2023-02-21T12:55:33;63.27;;;41.57;;
14698;SDS011;7439;50.804;4.602;2023-02-21T12:58:03;66.53;;;44.47;;
14698;SDS011;7439;50.804;4.602;2023-02-21T13:00:37;66.57;;;43.50;;
14698;SDS011;7439;50.804;4.602;2023-02-21T13:03:15;63.90;;;42.67;;
14698;SDS011;7439;50.804;4.602;2023-02-21T13:05:49;61.67;;;42.53;;
14698;SDS011;7439;50.804;4.602;2023-02-21T13:08:19;63.67;;;43.30;;
14698;SDS011;7439;50.804;4.602;2023-02-21T13:10:49;64.43;;;43.23;;
14698;SDS011;7439;50.804;4.602;2023-02-21T13:13:18;60.60;;;42.43;;
14698;SDS011;7439;50.804;4.602;2023-02-21T13:15:48;64.57;;;42.97;;
14698;SDS011;7439;50.804;4.602;2023-02-21T13:18:20;63.73;;;42.87;;
14698;SDS011;7439;50.804;4.602;2023-02-21T13:20:51;63.10;;;43.33;;
14698;SDS011;7439;50.804;4.602;2023-02-21T13:28:58;74.47;;;48.03;;
14698;SDS011;7439;50.804;4.602;2023-02-21T13:31:27;76.63;;;48.67;;
14698;SDS011;7439;50.804;4.602;2023-02-21T13:34:04;81.73;;;50.20;;
14698;SDS011;7439;50.804;4.602;2023-02-21T13:36:39;75.27;;;48.40;;
14698;SDS011;7439;50.804;4.602;2023-02-21T13:39:09;78.83;;;51.07;;
14698;SDS011;7439;50.804;4.602;2023-02-21T13:41:38;78.83;;;51.20;;
14698;SDS011;7439;50.804;4.602;2023-02-21T13:44:07;75.70;;;50.43;;
14698;SDS011;7439;50.804;4.602;2023-02-21T13:49:46;77.10;;;48.33;;
14698;SDS011;7439;50.804;4.602;2023-02-21T13:57:42;73.83;;;50.57;;
14698;SDS011;7439;50.804;4.602;2023-02-21T14:09:35;75.67;;;51.97;;
14698;SDS011;7439;50.804;4.602;2023-02-21T14:12:04;71.73;;;53.10;;
14698;SDS011;7439;50.804;4.602;2023-02-21T14:14:33;67.37;;;48.23;;
14698;SDS011;7439;50.804;4.602;2023-02-21T14:17:04;71.43;;;48.63;;
14698;SDS011;7439;50.804;4.602;2023-02-21T14:19:33;70.73;;;51.10;;
14698;SDS011;7439;50.804;4.602;2023-02-21T14:22:02;73.17;;;53.00;;
14698;SDS011;7439;50.804;4.602;2023-02-21T14:24:30;70.33;;;48.80;;
14698;SDS011;7439;50.804;4.602;2023-02-21T14:27:02;68.73;;;47.03;;
14698;SDS011;7439;50.804;4.602;2023-02-21T14:29:32;61.97;;;44.80;;
14698;SDS011;7439;50.804;4.602;2023-02-21T14:34:49;70.53;;;48.40;;
14698;SDS011;7439;50.804;4.602;2023-02-21T14:37:19;71.53;;;49.17;;
14698;SDS011;7439;50.804;4.602;2023-02-21T14:39:50;74.53;;;51.30;;
14698;SDS011;7439;50.804;4.602;2023-02-21T14:42:45;74.67;;;50.90;;
14698;SDS011;7439;50.804;4.602;2023-02-21T14:45:23;76.23;;;49.93;;
14698;SDS011;7439;50.804;4.602;2023-02-21T14:47:59;77.23;;;50.50;;
14698;SDS011;7439;50.804;4.602;2023-02-21T14:50:29;71.07;;;48.00;;
14698;SDS011;7439;50.804;4.602;2023-02-21T14:53:16;76.53;;;50.80;;
14698;SDS011;7439;50.804;4.602;2023-02-21T14:55:53;73.27;;;48.37;;
14698;SDS011;7439;50.804;4.602;2023-02-21T14:58:33;81.23;;;51.07;;
14698;SDS011;7439;50.804;4.602;2023-02-21T15:01:05;74.17;;;50.20;;
14698;SDS011;7439;50.804;4.602;2023-02-21T15:03:34;78.60;;;50.53;;
14698;SDS011;7439;50.804;4.602;2023-02-21T15:06:05;75.40;;;50.97;;
14698;SDS011;7439;50.804;4.602;2023-02-21T15:08:41;76.30;;;50.77;;
14698;SDS011;7439;50.804;4.602;2023-02-21T15:11:14;74.03;;;49.30;;
14698;SDS011;7439;50.804;4.602;2023-02-21T15:13:45;77.13;;;48.47;;
14698;SDS011;7439;50.804;4.602;2023-02-21T15:16:20;75.37;;;50.60;;
14698;SDS011;7439;50.804;4.602;2023-02-21T15:27:30;82.03;;;51.40;;
14698;SDS011;7439;50.804;4.602;2023-02-21T15:30:07;69.70;;;47.67;;
14698;SDS011;7439;50.804;4.602;2023-02-21T15:32:35;75.57;;;51.43;;
14698;SDS011;7439;50.804;4.602;2023-02-21T15:35:03;76.93;;;51.33;;
14698;SDS011;7439;50.804;4.602;2023-02-21T15:37:31;81.47;;;51.27;;
14698;SDS011;7439;50.804;4.602;2023-02-21T15:40:00;76.90;;;51.17;;
14698;SDS011;7439;50.804;4.602;2023-02-21T15:42:36;77.83;;;52.57;;
14698;SDS011;7439;50.804;4.602;2023-02-21T15:45:06;73.27;;;50.47;;